NDBC will be participating in PACIFEX26, a partner tabletop exercise with the Tsunami Warning Centers (TWCs) scheduled for May 05 at 1600 UTC. To simulate real-time tsunami observations, the exercise may involve activating Deep Ocean Assessment and Reporting of Tsunami (DART) buoys. For more information please see PNS26-39.

Station 45209 - Lakeport Buoy, MI Image indicating link to RSS feed of recent meteorological observations for station 45209


Conditions at 45209 as of
(10:00 pm EDT on 05/04/2026)
0200 GMT on 05/05/2026:
     

Click on the graph icon in the table below to see a time series plot of the last five days of that observation.

5-day plot - Wind Direction Wind Direction (WDIR):ESE ( 110 deg true )
5-day plot - Wind Speed Wind Speed (WSPD): 11.7 kts
5-day plot - Wind Gust Wind Gust (GST): 15.5 kts
5-day plot - Wave Height Wave Height (WVHT): 1.6 ft
5-day plot - Dominant Wave Period Dominant Wave Period (DPD): 3 sec
5-day plot - Mean Wave Direction Mean Wave Direction (MWD): SW ( 215 deg true )
5-day plot - Air Temperature Air Temperature (ATMP): 52.9 °F
5-day plot - Water Temperature Water Temperature (WTMP): 41.7 °F
5-day plot - Dew Point Dew Point (DEWP): 48.0 °F
5-day plot - Wind Chill Wind Chill (CHILL): 48.7 °F
5-day plot - Wind Speed at 10 Meters Wind Speed at 10 meters (WSPD10M): 13.6 kts
5-day plot - Wind Speed at 20 Meters Wind Speed at 20 meters (WSPD20M): 15.5 kts
5-day plot -  Wind Speed, Wind Gust and Atmospheric Pressure Combined plot of Wind Speed, Gust, and Air Pressure
Previous observations
TIME
(EDT)
5-day plot - Wind Direction
WDIR
 
5-day plot - Wind Speed
WSPD
kts
5-day plot - Wind Gust
GST
kts
5-day plot - Wave Height
WVHT
ft
5-day plot - Dominant Wave Period
DPD
sec
5-day plot - Average Wave Period
APD
sec
5-day plot - Mean Wave Direction
MWD
 
5-day plot - Atmospheric Pressure
PRES
in
5-day plot - Pressure Tendency
PTDY
in
5-day plot - Air Temperature
ATMP
°F
5-day plot - Water Temperature
WTMP
°F
5-day plot - Dew Point
DEWP
°F
5-day plot - Salinity
SAL
psu
5-day plot - Visibility
VIS
nmi
5-day plot - Tide (above MLLW)
TIDE
ft
2026-05-04 09:50 pmESE 11.7 15.5 1.3 3- SW-- 54.7 41.7 48.4---
2026-05-04 09:40 pm SE 13.6 19.4 1.6 3- SW-- 56.3 41.7 48.9---
2026-05-04 09:30 pm SE 15.5 19.4 1.3 2- SW-- 56.3 41.7 49.3---
2026-05-04 09:20 pm SE 15.5 19.4 1.3 2-SSW-- 56.3 41.7 49.5---
2026-05-04 09:10 pmESE 17.5 25.3 1.0 2- SW-- 57.0 41.7 49.5---
2026-05-04 09:00 pmESE 9.7 13.6 1.0 3-SSW-- 53.8 41.7 47.5---
2026-05-04 08:50 pmESE 7.8 9.7 1.0 3-SSW-- 54.1 41.7 47.3---
2026-05-04 08:40 pmESE 9.7 11.7 1.0 3- SW-- 55.8 41.7 47.8---
2026-05-04 08:30 pmESE 9.7 11.7 1.3 3-SSW-- 55.9 41.7 47.8---
2026-05-04 08:20 pmESE 11.7 15.5 1.3 3-SSW-- 57.0 41.7 47.8---
2026-05-04 08:10 pmESE 11.7 15.5 1.3 3-SSW-- 57.4 41.7 47.8---
2026-05-04 08:00 pmESE 13.6 15.5 1.3 3- SW-- 58.3 41.7 47.8---
2026-05-04 07:50 pmESE 11.7 13.6 1.3 3-SSW-- 56.5 41.7 46.9---
2026-05-04 07:40 pmESE 13.6 17.5 1.3 3- SW-- 57.6 41.7 47.1---
2026-05-04 07:30 pmESE 11.7 15.5 1.3 3-SSW-- 57.2 41.9 46.6---
2026-05-04 07:20 pmESE 11.7 13.6 1.6 3-SSW-- 57.4 41.7 46.4---
2026-05-04 07:10 pmESE 11.7 15.5 1.6 3- SW-- 57.9 41.7 46.4---
2026-05-04 07:00 pmESE 13.6 17.5 2.0 3-SSW-- 58.6 41.7 46.2---
2026-05-04 06:50 pmESE 13.6 17.5 1.6 3-SSW-- 57.7 41.9 45.9---
2026-05-04 06:40 pmESE 13.6 17.5 1.6 3-SSW-- 58.5 41.9 45.7---
2026-05-04 06:30 pmESE 11.7 19.4 1.6 3- SW-- 58.1 41.9 45.7---
2026-05-04 06:20 pmESE 13.6 17.5 2.0 3-SSW-- 58.8 41.9 45.5---
2026-05-04 06:10 pmESE 15.5 19.4 2.0 3- SW-- 59.5 41.9 45.3---
2026-05-04 06:00 pmESE 13.6 19.4 2.0 3-SSW-- 59.0 41.9 45.5---
2026-05-04 05:50 pmESE 15.5 23.3 2.0 3- SW-- 59.5 41.9 45.7---
2026-05-04 05:40 pmESE 15.5 19.4 2.0 3- SW-- 58.3 41.9 45.9---
2026-05-04 05:30 pmESE 15.5 25.3 2.0 3- SW-- 59.5 41.9 46.0---
2026-05-04 05:20 pmESE 15.5 19.4 2.0 3- SW-- 58.8 41.9 45.5---
2026-05-04 05:10 pmESE 15.5 21.4 2.0 3- SW-- 60.4 42.1 45.5---
2026-05-04 05:00 pmESE 15.5 23.3 1.6 3- SW-- 59.2 42.1 45.5---
2026-05-04 04:50 pmESE 15.5 19.4 1.6 3- SW-- 58.6 41.9 45.3---
2026-05-04 04:40 pmESE 15.5 21.4 1.6 3-SSW-- 59.0 41.9 45.7---
2026-05-04 04:30 pmESE 13.6 17.5 1.6 3- SW-- 57.7 41.9 45.7---
2026-05-04 04:20 pmESE 11.7 15.5 1.6 3-SSW-- 57.2 42.1 46.2---
2026-05-04 04:10 pmESE 13.6 17.5 1.6 3-SSW-- 57.9 41.9 46.4---
2026-05-04 04:00 pmESE 13.6 19.4 1.6 3-SSW-- 56.8 42.1 46.4---
2026-05-04 03:50 pmESE 13.6 17.5 1.6 3-SSW-- 57.6 41.9 46.6---
2026-05-04 03:40 pmESE 13.6 15.5 1.6 3-SSW-- 57.7 42.1 46.8---
2026-05-04 03:30 pmESE 13.6 15.5 1.6 3-SSW-- 57.0 42.1 46.4---
2026-05-04 03:20 pmESE 13.6 17.5 1.6 3-SSW-- 57.0 42.1 46.0---
2026-05-04 03:10 pmESE 11.7 17.5 1.6 3- SW-- 55.9 42.1 45.9---
2026-05-04 03:00 pmESE 13.6 19.4 1.6 3-SSW-- 57.0 42.1 46.4---
2026-05-04 02:50 pmESE 13.6 17.5 1.6 3-SSW-- 56.8 42.1 45.9---
2026-05-04 02:40 pmESE 15.5 19.4 1.6 3-SSW-- 58.6 42.1 44.8---
2026-05-04 02:30 pmESE 15.5 21.4 1.3 3- SW-- 58.5 42.1 44.8---
2026-05-04 02:20 pmESE 13.6 17.5 1.3 3- SW-- 57.6 42.1 45.1---
2026-05-04 02:10 pmESE 11.7 13.6 1.3 2- SW-- 55.9 42.1 45.1---
2026-05-04 02:00 pmESE 9.7 15.5 1.3 3- SW-- 57.6 42.1 45.1---
2026-05-04 01:50 pm SE 11.7 21.4 1.3 2- SW-- 59.0 42.1 44.8---
2026-05-04 01:40 pm SE 13.6 21.4 1.3 3- SW-- 61.2 42.1 44.6---
2026-05-04 01:30 pm SE 13.6 19.4 1.3 2-SSW-- 60.3 42.1 44.8---
2026-05-04 01:20 pm SE 13.6 23.3 1.3 2-SSW-- 59.7 42.1 45.0---
2026-05-04 01:10 pmSSE 11.7 15.5 1.0 2-SSW-- 58.5 42.1 45.5---
2026-05-04 01:00 pm SE 9.7 13.6 1.0 2-SSW-- 56.1 42.1 45.5---
2026-05-04 12:50 pmESE 7.8 11.7 1.0 2-SSW-- 53.4 42.1 45.7---
2026-05-04 12:40 pmESE 7.8 11.7 1.0 2-SSW-- 54.0 42.1 46.0---
2026-05-04 12:30 pmESE 9.7 11.7 1.0 2-SSW-- 52.3 42.1 45.5---
2026-05-04 12:20 pmESE 9.7 11.7 1.0--SSW-- 52.3 42.1 45.5---
2026-05-04 12:10 pmESE 9.7 11.7 1.0 2-SSW-- 52.7 41.9 45.5---
2026-05-04 12:00 pmESE 9.7 11.7 1.0--SSW-- 52.5 42.1 45.5---
2026-05-04 11:50 amESE 9.7 11.7 1.0-- SW-- 51.4 42.1 45.3---
2026-05-04 11:40 amESE 7.8 9.7 1.0--SSW-- 51.4 42.1 45.1---
2026-05-04 11:30 amESE 9.7 9.7 1.0--SSW-- 51.8 41.9 45.1---
2026-05-04 11:20 amESE 9.7 9.7 1.0-- SW-- 51.4 41.9 45.1---
2026-05-04 11:10 amESE 9.7 11.7 1.0 2- SW-- 51.8 41.9 45.1---
2026-05-04 11:00 amESE 9.7 11.7 1.0 2- SW-- 51.4 41.9 45.1---
2026-05-04 10:50 amESE 7.8 9.7 1.0 2- SW-- 50.9 41.9 45.0---
2026-05-04 10:40 amESE 5.8 7.8 1.0 2- SW-- 49.5 41.7 44.6---
2026-05-04 10:30 am SE 5.8 7.8 1.0 2- SW-- 49.1 41.7 44.2---
2026-05-04 10:20 am SE 7.8 9.7 1.0 2- SW-- 49.8 41.9 44.4---
2026-05-04 10:10 am SE 7.8 9.7 1.0 3- SW-- 50.5 41.9 44.4---
2026-05-04 10:00 am SE 9.7 11.7 1.3 3-SSW-- 50.2 41.7 44.4---
2026-05-04 09:50 am SE 7.8 9.7 1.3 3- SW-- 49.6 41.7 44.2---
2026-05-04 09:40 am SE 9.7 11.7 1.0 3- SW-- 50.2 41.7 44.2---
2026-05-04 09:30 am SE 9.7 11.7 1.3 3- SW-- 49.5 41.9 44.1---
2026-05-04 09:20 am SE 9.7 11.7 1.3 3-SSW-- 49.3 41.7 43.9---
2026-05-04 09:10 am SE 9.7 11.7 1.3 2- SW-- 49.5 41.9 43.9---
2026-05-04 09:00 am SE 9.7 11.7 1.3 3- SW-- 49.5 41.7 43.7---
2026-05-04 08:50 am SE 9.7 11.7 1.3 3-SSW-- 49.6 41.7 43.7---
2026-05-04 08:40 am SE 9.7 13.6 1.3 2- SW-- 49.3 41.9 43.5---
2026-05-04 08:30 am SE 9.7 11.7 1.3 3- SW-- 49.1 41.9 43.3---
2026-05-04 08:20 am SE 9.7 11.7 1.3 3-SSW-- 49.1 41.9 43.3---
2026-05-04 08:10 am SE 9.7 11.7 1.0 2- SW-- 48.9 41.9 43.2---
2026-05-04 08:00 am SE 9.7 11.7 1.0 2- SW-- 48.6 41.9 43.0---
2026-05-04 07:50 am SE 11.7 13.6 1.3 2- SW-- 48.4 41.9 42.6---
2026-05-04 07:40 am SE 11.7 15.5 1.3 2- SW-- 48.4 41.9 42.6---
2026-05-04 07:30 am SE 9.7 15.5 1.0 2- SW-- 47.8 41.9 42.4---
2026-05-04 07:20 am SE 11.7 15.5 1.0 2- SW-- 47.7 41.9 42.4---
2026-05-04 07:10 am SE 9.7 11.7 1.3 4- NE-- 47.5 41.9 42.3---
2026-05-04 07:00 am SE 9.7 13.6 1.3 4-NNE-- 47.5 41.9 42.3---
2026-05-04 06:50 amESE 9.7 11.7 1.0 2- SW-- 47.1 41.9 42.3---
2026-05-04 06:40 amESE 9.7 9.7 1.0 2- SW-- 46.9 41.9 42.1---
2026-05-04 06:30 amESE 7.8 9.7 1.0 2- SW-- 47.1 41.9 42.1---
2026-05-04 06:20 amESE 7.8 9.7 1.3 3- SW-- 47.1 41.9 42.1---
2026-05-04 06:10 amESE 7.8 9.7 1.3 3-SSW-- 46.9 41.9 42.1---
2026-05-04 06:00 amESE 7.8 11.7 1.3 3- SW-- 47.1 41.9 42.1---
2026-05-04 05:50 amESE 7.8 11.7 1.3 3- SW-- 47.1 42.1 42.1---
2026-05-04 05:40 amESE 9.7 11.7 1.3 3- SW-- 47.5 42.1 42.1---
2026-05-04 05:30 amESE 9.7 11.7 1.3 3- SW-- 47.5 42.1 42.1---
2026-05-04 05:20 amESE 9.7 11.7 1.3 3- SW-- 47.7 42.1 42.1---
2026-05-04 05:10 amESE 9.7 13.6 1.6 3- SW-- 48.0 42.1 42.1---
2026-05-04 05:00 am SE 9.7 15.5 1.6 3- SW-- 48.0 42.1 42.1---
2026-05-04 04:50 am SE 9.7 13.6 1.3 3- SW-- 48.4 42.1 42.1---
2026-05-04 04:40 am SE 11.7 15.5 1.3 2- SW-- 48.7 42.1 42.1---
2026-05-04 04:30 am SE 11.7 15.5 1.3 3- SW-- 48.7 42.1 42.1---
2026-05-04 04:20 am SE 11.7 15.5 1.3 3- SW-- 48.9 42.3 42.1---
2026-05-04 04:10 am SE 11.7 15.5 1.3 3- SW-- 48.9 42.3 42.1---
2026-05-04 04:00 am SE 11.7 15.5 1.3 3- SW-- 48.7 42.3 42.1---
2026-05-04 03:50 am SE 11.7 15.5 1.6 3- SW-- 48.7 42.3 42.3---
2026-05-04 03:40 am SE 11.7 15.5 1.6 3- SW-- 48.9 42.3 42.3---
2026-05-04 03:30 am SE 11.7 17.5 1.6 2- SW-- 49.1 42.3 42.1---
2026-05-04 03:20 am SE 13.6 15.5 1.6 3- SW-- 49.5 42.3 42.1---
2026-05-04 03:10 am SE 11.7 17.5 1.6 3- SW-- 49.5 42.3 42.1---
2026-05-04 03:00 am SE 11.7 15.5 1.6 3- SW-- 49.5 42.3 42.3---
2026-05-04 02:50 am SE 13.6 17.5 1.6 3-SSW-- 49.8 42.3 42.1---
2026-05-04 02:40 am SE 13.6 19.4 1.6 3-SSW-- 49.8 42.3 42.3---
2026-05-04 02:30 am SE 13.6 19.4 1.6 3-SSW-- 50.0 42.3 42.3---
2026-05-04 02:20 am SE 13.6 19.4 1.6 3-SSW-- 50.0 42.3 42.3---
2026-05-04 02:10 am SE 13.6 17.5 1.3 3-SSW-- 49.8 42.3 42.4---
2026-05-04 02:00 am SE 13.6 17.5 1.6 3-SSW-- 50.0 42.4 42.4---
2026-05-04 01:50 am SE 13.6 17.5 1.3 3-SSW-- 49.6 42.4 42.4---
2026-05-04 01:40 am SE 13.6 17.5 1.6 3-SSW-- 49.5 42.4 42.4---
2026-05-04 01:30 am SE 11.7 15.5 1.3 3- SW-- 49.5 42.4 42.4---
2026-05-04 01:20 am SE 13.6 17.5 1.6 3-SSW-- 49.5 42.4 42.3---
2026-05-04 01:10 am SE 11.7 17.5 1.6 3-SSW-- 49.3 42.4 42.3---
2026-05-04 01:00 am SE 11.7 17.5 1.6 3-SSW-- 50.0 42.4 41.9---
2026-05-04 12:50 am SE 13.6 19.4 1.6 3-SSW-- 50.9 42.4 41.7---
2026-05-04 12:40 am SE 15.5 19.4 1.6 3-SSW-- 51.3 42.4 41.7---
2026-05-04 12:30 am SE 13.6 21.4 1.6 3-SSW-- 51.1 42.4 41.9---
2026-05-04 12:20 am SE 15.5 19.4 1.6 3-SSW-- 51.3 42.4 41.9---
2026-05-04 12:10 am SE 17.5 21.4 1.6 3-SSW-- 52.2 42.4 41.7---
2026-05-04 12:00 am SE 15.5 21.4 1.6 3-SSW-- 52.2 42.4 41.7---
2026-05-03 11:50 pm SE 17.5 27.2 1.6 3- SW-- 52.5 42.4 41.7---
2026-05-03 11:40 pm SE 13.6 19.4 1.6 3-SSW-- 51.8 42.6 42.1---
2026-05-03 11:30 pm SE 15.5 21.4 1.6 3-SSW-- 52.2 42.6 41.9---
2026-05-03 11:20 pm SE 17.5 25.3 1.6 3- SW-- 52.7 42.6 41.7---
2026-05-03 11:10 pm SE 13.6 23.3 1.6 3- SW-- 52.3 42.6 42.1---
2026-05-03 11:00 pm SE 13.6 17.5 1.6 3- SW-- 52.3 42.6 42.1---
2026-05-03 10:50 pm SE 13.6 19.4 1.3 3-WSW-- 52.7 42.6 41.9---
2026-05-03 10:40 pm SE 11.7 19.4 1.6 3-WSW-- 52.2 42.6 42.3---
2026-05-03 10:30 pmSSE 13.6 17.5 1.3 3-WSW-- 52.7 42.6 41.9---
2026-05-03 10:20 pmSSE 13.6 17.5 1.3 3-WSW-- 53.2 42.6 41.7---
2026-05-03 10:10 pmSSE 13.6 19.4 1.6 3-WSW-- 53.6 42.6 41.9---
2026-05-03 10:00 pmSSE 13.6 17.5 1.6 3-WSW-- 53.4 42.6 41.9---
2026-05-03 09:50 pmSSE 11.7 17.5 1.6 3-WSW-- 53.6 42.6 41.7---

Wave Summary
for 45209 as of
(10:00 pm EDT on 05/04/2026)
0200 GMT on 05/05/2026:

These wave data are displayed in rounded times.

     

Click on the graph icon in the table below to see a time series plot of the last five days of that observation.

5-day plot - Significant Wave Height Significant Wave Height (WVHT): 1.6 ft
Previous observations
TIME
(EDT)
5-day plot - Wave Height
WVHT
ft
5-day plot - Swell Height
SwH
ft
5-day plot - Swell Period
SwP
sec
5-day plot - Swell Direction
SwD
 
5-day plot - Wind Wave Height
WWH
ft
5-day plot - Wind Wave Period
WWP
sec
5-day plot - Wind Wave Direction
WWD
 
5-day plot - Wave Steepness
STEEPNESS
 
5-day plot - Average Wave Period
APD
sec
2026-05-04 09:50 pm 1.3------ N/A-
2026-05-04 09:40 pm 1.6------ N/A-
2026-05-04 09:30 pm 1.3------ N/A-
2026-05-04 09:20 pm 1.3------ N/A-
2026-05-04 09:10 pm 1.0------ N/A-
2026-05-04 09:00 pm 1.0------ N/A-
2026-05-04 08:50 pm 1.0------ N/A-
2026-05-04 08:40 pm 1.0------ N/A-
2026-05-04 08:30 pm 1.3------ N/A-
2026-05-04 08:20 pm 1.3------ N/A-
2026-05-04 08:10 pm 1.3------ N/A-
2026-05-04 08:00 pm 1.3------ N/A-
2026-05-04 07:50 pm 1.3------ N/A-
2026-05-04 07:40 pm 1.3------ N/A-
2026-05-04 07:30 pm 1.3------ N/A-
2026-05-04 07:20 pm 1.6------ N/A-
2026-05-04 07:10 pm 1.6------ N/A-
2026-05-04 07:00 pm 2.0------ N/A-
2026-05-04 06:50 pm 1.6------ N/A-
2026-05-04 06:40 pm 1.6------ N/A-
2026-05-04 06:30 pm 1.6------ N/A-
2026-05-04 06:20 pm 2.0------ N/A-
2026-05-04 06:10 pm 2.0------ N/A-
2026-05-04 06:00 pm 2.0------ N/A-
2026-05-04 05:50 pm 2.0------ N/A-
2026-05-04 05:40 pm 2.0------ N/A-
2026-05-04 05:30 pm 2.0------ N/A-
2026-05-04 05:20 pm 2.0------ N/A-
2026-05-04 05:10 pm 2.0------ N/A-
2026-05-04 05:00 pm 1.6------ N/A-
2026-05-04 04:50 pm 1.6------ N/A-
2026-05-04 04:40 pm 1.6------ N/A-
2026-05-04 04:30 pm 1.6------ N/A-
2026-05-04 04:20 pm 1.6------ N/A-
2026-05-04 04:10 pm 1.6------ N/A-
2026-05-04 04:00 pm 1.6------ N/A-
2026-05-04 03:50 pm 1.6------ N/A-
2026-05-04 03:40 pm 1.6------ N/A-
2026-05-04 03:30 pm 1.6------ N/A-
2026-05-04 03:20 pm 1.6------ N/A-
2026-05-04 03:10 pm 1.6------ N/A-
2026-05-04 03:00 pm 1.6------ N/A-
2026-05-04 02:50 pm 1.6------ N/A-
2026-05-04 02:40 pm 1.6------ N/A-
2026-05-04 02:30 pm 1.3------ N/A-
2026-05-04 02:20 pm 1.3------ N/A-
2026-05-04 02:10 pm 1.3------ N/A-
2026-05-04 02:00 pm 1.3------ N/A-
2026-05-04 01:50 pm 1.3------ N/A-
2026-05-04 01:40 pm 1.3------ N/A-
2026-05-04 01:30 pm 1.3------ N/A-
2026-05-04 01:20 pm 1.3------ N/A-
2026-05-04 01:10 pm 1.0------ N/A-
2026-05-04 01:00 pm 1.0------ N/A-
2026-05-04 12:50 pm 1.0------ N/A-
2026-05-04 12:40 pm 1.0------ N/A-
2026-05-04 12:30 pm 1.0------ N/A-
2026-05-04 12:20 pm 1.0------ N/A-
2026-05-04 12:10 pm 1.0------ N/A-
2026-05-04 12:00 pm 1.0------ N/A-
2026-05-04 11:50 am 1.0------ N/A-
2026-05-04 11:40 am 1.0------ N/A-
2026-05-04 11:30 am 1.0------ N/A-
2026-05-04 11:20 am 1.0------ N/A-
2026-05-04 11:10 am 1.0------ N/A-
2026-05-04 11:00 am 1.0------ N/A-
2026-05-04 10:50 am 1.0------ N/A-
2026-05-04 10:40 am 1.0------ N/A-
2026-05-04 10:30 am 1.0------ N/A-
2026-05-04 10:20 am 1.0------ N/A-
2026-05-04 10:10 am 1.0------ N/A-
2026-05-04 10:00 am 1.3------ N/A-
2026-05-04 09:50 am 1.3------ N/A-
2026-05-04 09:40 am 1.0------ N/A-
2026-05-04 09:30 am 1.3------ N/A-
2026-05-04 09:20 am 1.3------ N/A-
2026-05-04 09:10 am 1.3------ N/A-
2026-05-04 09:00 am 1.3------ N/A-
2026-05-04 08:50 am 1.3------ N/A-
2026-05-04 08:40 am 1.3------ N/A-
2026-05-04 08:30 am 1.3------ N/A-
2026-05-04 08:20 am 1.3------ N/A-
2026-05-04 08:10 am 1.0------ N/A-
2026-05-04 08:00 am 1.0------ N/A-
2026-05-04 07:50 am 1.3------ N/A-
2026-05-04 07:40 am 1.3------ N/A-
2026-05-04 07:30 am 1.0------ N/A-
2026-05-04 07:20 am 1.0------ N/A-
2026-05-04 07:10 am 1.3------ N/A-
2026-05-04 07:00 am 1.3------ N/A-
2026-05-04 06:50 am 1.0------ N/A-
2026-05-04 06:40 am 1.0------ N/A-
2026-05-04 06:30 am 1.0------ N/A-
2026-05-04 06:20 am 1.3------ N/A-
2026-05-04 06:10 am 1.3------ N/A-
2026-05-04 06:00 am 1.3------ N/A-
2026-05-04 05:50 am 1.3------ N/A-
2026-05-04 05:40 am 1.3------ N/A-
2026-05-04 05:30 am 1.3------ N/A-
2026-05-04 05:20 am 1.3------ N/A-
2026-05-04 05:10 am 1.6------ N/A-
2026-05-04 05:00 am 1.6------ N/A-
2026-05-04 04:50 am 1.3------ N/A-
2026-05-04 04:40 am 1.3------ N/A-
2026-05-04 04:30 am 1.3------ N/A-
2026-05-04 04:20 am 1.3------ N/A-
2026-05-04 04:10 am 1.3------ N/A-
2026-05-04 04:00 am 1.3------ N/A-
2026-05-04 03:50 am 1.6------ N/A-
2026-05-04 03:40 am 1.6------ N/A-
2026-05-04 03:30 am 1.6------ N/A-
2026-05-04 03:20 am 1.6------ N/A-
2026-05-04 03:10 am 1.6------ N/A-
2026-05-04 03:00 am 1.6------ N/A-
2026-05-04 02:50 am 1.6------ N/A-
2026-05-04 02:40 am 1.6------ N/A-
2026-05-04 02:30 am 1.6------ N/A-
2026-05-04 02:20 am 1.6------ N/A-
2026-05-04 02:10 am 1.3------ N/A-
2026-05-04 02:00 am 1.6------ N/A-
2026-05-04 01:50 am 1.3------ N/A-
2026-05-04 01:40 am 1.6------ N/A-
2026-05-04 01:30 am 1.3------ N/A-
2026-05-04 01:20 am 1.6------ N/A-
2026-05-04 01:10 am 1.6------ N/A-
2026-05-04 01:00 am 1.6------ N/A-
2026-05-04 12:50 am 1.6------ N/A-
2026-05-04 12:40 am 1.6------ N/A-
2026-05-04 12:30 am 1.6------ N/A-
2026-05-04 12:20 am 1.6------ N/A-
2026-05-04 12:10 am 1.6------ N/A-
2026-05-04 12:00 am 1.6------ N/A-
2026-05-03 11:50 pm 1.6------ N/A-
2026-05-03 11:40 pm 1.6------ N/A-
2026-05-03 11:30 pm 1.6------ N/A-
2026-05-03 11:20 pm 1.6------ N/A-
2026-05-03 11:10 pm 1.6------ N/A-
2026-05-03 11:00 pm 1.6------ N/A-
2026-05-03 10:50 pm 1.3------ N/A-
2026-05-03 10:40 pm 1.6------ N/A-
2026-05-03 10:30 pm 1.3------ N/A-
2026-05-03 10:20 pm 1.3------ N/A-
2026-05-03 10:10 pm 1.6------ N/A-
2026-05-03 10:00 pm 1.6------ N/A-
2026-05-03 09:50 pm 1.6------ N/A-